createdAt,value
2023-04-04T00:00:24.663Z,2.70
2023-04-04T00:02:51.675Z,3.03
2023-04-04T00:05:18.889Z,2.65
2023-04-04T00:07:48.140Z,2.40
2023-04-04T00:10:15.527Z,2.45
2023-04-04T00:12:43.027Z,2.80
2023-04-04T00:15:09.928Z,2.58
2023-04-04T00:17:36.343Z,2.90
2023-04-04T00:20:04.350Z,2.63
2023-04-04T00:22:31.475Z,2.63
2023-04-04T00:24:58.006Z,2.50
2023-04-04T00:27:24.424Z,2.47
2023-04-04T00:29:50.821Z,2.88
2023-04-04T00:32:17.262Z,2.85
2023-04-04T00:34:43.658Z,2.63
2023-04-04T00:37:13.042Z,3.00
2023-04-04T00:39:40.335Z,2.63
2023-04-04T00:42:07.316Z,2.40
2023-04-04T00:44:35.708Z,2.55
2023-04-04T00:47:04.120Z,2.70
2023-04-04T00:49:30.558Z,2.50
2023-04-04T00:51:57.931Z,2.83
2023-04-04T00:54:24.399Z,2.67
2023-04-04T00:56:55.216Z,2.72
2023-04-04T00:59:27.771Z,2.50
2023-04-04T01:01:54.574Z,2.63
2023-04-04T01:04:21.200Z,3.05
2023-04-04T01:06:48.869Z,2.92
2023-04-04T01:09:15.664Z,2.60
2023-04-04T01:11:43.986Z,2.80
2023-04-04T01:14:10.485Z,2.25
2023-04-04T01:16:37.028Z,2.95
2023-04-04T01:19:34.790Z,2.65
2023-04-04T01:22:06.637Z,2.38
2023-04-04T01:24:34.126Z,2.03
2023-04-04T01:27:03.169Z,2.22
2023-04-04T01:29:29.580Z,2.22
2023-04-04T01:32:08.393Z,2.60
2023-04-04T01:34:47.232Z,2.08
2023-04-04T01:37:23.208Z,2.20
2023-04-04T01:39:56.358Z,2.13
2023-04-04T01:42:24.295Z,2.90
2023-04-04T01:44:56.987Z,2.35
2023-04-04T01:47:29.243Z,2.45
2023-04-04T01:49:55.725Z,2.60
2023-04-04T01:52:22.896Z,2.80
2023-04-04T01:54:49.297Z,2.97
2023-04-04T01:57:15.765Z,2.47
2023-04-04T01:59:42.963Z,2.95
2023-04-04T02:02:10.719Z,2.22
2023-04-04T02:04:37.508Z,2.92
2023-04-04T02:07:04.497Z,2.47
2023-04-04T02:09:31.389Z,2.47
2023-04-04T02:11:57.775Z,2.47
2023-04-04T02:14:24.316Z,2.08
2023-04-04T02:16:51.655Z,2.90
2023-04-04T02:19:18.732Z,2.80
2023-04-04T02:21:45.208Z,2.40
2023-04-04T02:24:11.650Z,2.42
2023-04-04T02:26:38.946Z,2.67
2023-04-04T02:29:06.262Z,2.33
2023-04-04T02:31:32.784Z,2.90
2023-04-04T02:33:59.240Z,2.65
2023-04-04T02:36:25.643Z,2.80
2023-04-04T02:38:54.077Z,2.70
2023-04-04T02:41:23.744Z,3.13
2023-04-04T02:43:50.329Z,2.25
2023-04-04T02:46:22.096Z,2.55
2023-04-04T02:48:53.264Z,2.72
2023-04-04T02:51:19.862Z,2.88
2023-04-04T02:53:46.948Z,2.92
2023-04-04T02:56:20.564Z,2.33
2023-04-04T02:58:47.088Z,3.72
2023-04-04T03:01:13.521Z,2.20
2023-04-04T03:03:40.020Z,2.63
2023-04-04T03:06:06.576Z,3.38
2023-04-04T03:08:32.999Z,2.83
2023-04-04T03:10:59.709Z,3.15
2023-04-04T03:13:26.947Z,2.97
2023-04-04T03:16:03.032Z,2.50
2023-04-04T03:18:35.247Z,2.97
2023-04-04T03:21:01.666Z,3.13
2023-04-04T03:23:28.074Z,3.08
2023-04-04T03:25:55.173Z,2.67
2023-04-04T03:28:21.765Z,2.90
2023-04-04T03:30:48.169Z,3.03
2023-04-04T03:33:15.213Z,3.88
2023-04-04T03:35:42.134Z,3.42
2023-04-04T03:38:09.779Z,3.33
2023-04-04T03:40:36.547Z,3.65
2023-04-04T03:43:08.676Z,3.53
2023-04-04T03:45:38.424Z,3.40
2023-04-04T03:48:05.539Z,2.70
2023-04-04T03:50:32.067Z,3.38
2023-04-04T03:52:58.597Z,3.58
2023-04-04T03:55:26.230Z,2.95
2023-04-04T03:57:57.383Z,4.38
2023-04-04T04:00:23.973Z,3.08
2023-04-04T04:02:50.393Z,2.80
2023-04-04T04:05:18.929Z,3.17
2023-04-04T04:07:45.631Z,3.20
2023-04-04T04:10:14.158Z,3.33
2023-04-04T04:12:40.700Z,4.10
2023-04-04T04:15:07.862Z,3.70
2023-04-04T04:17:34.801Z,3.30
2023-04-04T04:20:01.408Z,3.17
2023-04-04T04:22:36.162Z,4.15
2023-04-04T04:25:03.131Z,3.20
2023-04-04T04:27:30.926Z,3.53
2023-04-04T04:29:57.498Z,3.40
2023-04-04T04:32:26.493Z,3.13
2023-04-04T04:34:53.877Z,3.30
2023-04-04T04:37:26.261Z,3.28
2023-04-04T04:39:55.403Z,3.88
2023-04-04T04:42:44.254Z,3.80
2023-04-04T04:45:10.926Z,5.10
2023-04-04T04:47:40.117Z,4.35
2023-04-04T04:50:08.803Z,3.58
2023-04-04T04:52:40.181Z,3.55
2023-04-04T04:55:07.408Z,3.72
2023-04-04T04:57:38.203Z,3.47
2023-04-04T05:00:12.586Z,3.80
2023-04-04T05:02:39.108Z,3.80
2023-04-04T05:05:06.389Z,3.67
2023-04-04T05:07:33.830Z,5.45
2023-04-04T05:10:00.402Z,4.28
2023-04-04T05:12:27.123Z,3.92
2023-04-04T05:14:54.798Z,4.75
2023-04-04T05:17:22.972Z,4.03
2023-04-04T05:19:51.728Z,4.87
2023-04-04T05:22:21.139Z,4.50
2023-04-04T05:24:51.233Z,3.90
2023-04-04T05:27:21.653Z,5.20
2023-04-04T05:29:54.289Z,5.63
2023-04-04T05:32:21.819Z,4.78
2023-04-04T05:34:57.167Z,5.53
2023-04-04T05:37:23.562Z,4.45
2023-04-04T05:39:50.001Z,5.03
2023-04-04T05:42:17.691Z,4.38
2023-04-04T05:44:49.069Z,4.47
2023-04-04T05:47:15.994Z,5.10
2023-04-04T05:49:45.903Z,4.83
2023-04-04T05:52:12.418Z,4.85
2023-04-04T05:54:38.868Z,3.83
2023-04-04T05:57:11.836Z,4.75
2023-04-04T05:59:49.834Z,4.43
2023-04-04T06:02:17.358Z,4.72
2023-04-04T06:04:49.333Z,5.10
2023-04-04T06:07:21.369Z,4.60
2023-04-04T06:09:50.531Z,4.35
2023-04-04T06:12:17.319Z,4.82
2023-04-04T06:14:43.735Z,6.00
2023-04-04T06:17:10.753Z,6.25
2023-04-04T06:19:37.213Z,5.53
2023-04-04T06:22:03.627Z,4.97
2023-04-04T06:24:33.364Z,5.32
2023-04-04T06:27:01.743Z,5.45
2023-04-04T06:29:28.594Z,5.03
2023-04-04T06:31:58.291Z,5.20
2023-04-04T06:34:34.111Z,5.88
2023-04-04T06:37:01.290Z,5.05
2023-04-04T06:39:34.322Z,5.25
2023-04-04T06:42:03.466Z,5.88
2023-04-04T06:44:32.673Z,5.40
2023-04-04T06:46:59.143Z,4.55
2023-04-04T06:49:25.643Z,4.93
2023-04-04T06:51:52.599Z,4.45
2023-04-04T06:54:19.698Z,4.85
2023-04-04T06:56:46.119Z,4.80
2023-04-04T06:59:12.981Z,5.03
2023-04-04T07:01:39.505Z,5.28
2023-04-04T07:04:05.937Z,3.80
2023-04-04T07:06:32.331Z,4.18
2023-04-04T07:08:58.839Z,3.67
2023-04-04T07:11:25.384Z,4.32
2023-04-04T07:13:51.787Z,4.40
2023-04-04T07:16:18.186Z,5.35
2023-04-04T07:18:44.577Z,3.97
2023-04-04T07:21:10.967Z,4.25
2023-04-04T07:23:37.369Z,3.88
2023-04-04T07:26:03.782Z,3.85
2023-04-04T07:28:30.211Z,3.28
2023-04-04T07:31:00.724Z,3.03
2023-04-04T07:33:27.700Z,2.28
2023-04-04T07:35:54.635Z,3.40
2023-04-04T07:38:21.064Z,3.00
2023-04-04T07:40:50.505Z,3.33
2023-04-04T07:43:17.209Z,2.40
2023-04-04T07:45:43.688Z,3.20
2023-04-04T07:48:10.211Z,2.50
2023-04-04T07:50:36.670Z,2.72
2023-04-04T07:53:03.104Z,2.53
2023-04-04T07:55:29.599Z,2.33
2023-04-04T07:57:56.240Z,3.05
2023-04-04T08:00:25.718Z,2.85
2023-04-04T08:02:56.231Z,2.33
2023-04-04T08:05:23.508Z,2.63
2023-04-04T08:07:49.922Z,2.38
2023-04-04T08:10:20.728Z,3.05
2023-04-04T08:12:48.055Z,2.97
2023-04-04T08:15:16.314Z,2.92
2023-04-04T08:17:45.341Z,2.00
2023-04-04T08:20:12.435Z,2.17
2023-04-04T08:22:40.841Z,2.30
2023-04-04T08:25:07.563Z,2.03
2023-04-04T08:27:34.110Z,2.25
2023-04-04T08:30:00.541Z,1.92
2023-04-04T08:32:26.974Z,2.22
2023-04-04T08:34:53.398Z,2.65
2023-04-04T08:37:19.790Z,2.70
2023-04-04T08:39:46.187Z,1.98
2023-04-04T08:42:16.787Z,1.83
2023-04-04T08:44:45.678Z,2.08
2023-04-04T08:47:13.437Z,2.00
2023-04-04T08:49:44.030Z,2.47
2023-04-04T08:52:12.765Z,2.35
2023-04-04T08:54:40.668Z,2.35
2023-04-04T08:57:08.251Z,2.65
2023-04-04T08:59:34.966Z,2.72
2023-04-04T09:02:15.867Z,2.38
2023-04-04T09:04:48.834Z,2.10
2023-04-04T09:07:22.744Z,2.15
2023-04-04T09:09:50.518Z,2.08
2023-04-04T09:12:17.212Z,2.10
2023-04-04T09:14:44.443Z,1.77
2023-04-04T09:17:10.953Z,2.03
2023-04-04T09:19:37.804Z,1.70
2023-04-04T09:22:07.886Z,2.10
2023-04-04T09:24:42.058Z,1.92
2023-04-04T09:27:13.181Z,1.90
2023-04-04T09:29:40.877Z,2.70
2023-04-04T09:32:09.146Z,2.28
2023-04-04T09:34:36.469Z,1.50
2023-04-04T09:37:05.199Z,2.00
2023-04-04T09:39:33.410Z,1.42
2023-04-04T09:42:01.211Z,1.98
2023-04-04T09:44:33.243Z,2.30
2023-04-04T09:47:30.636Z,2.17
2023-04-04T09:50:02.873Z,1.88
2023-04-04T09:52:33.873Z,1.50
2023-04-04T09:57:37.993Z,1.38
2023-04-04T10:00:09.440Z,1.75
2023-04-04T10:02:46.903Z,1.83
2023-04-04T10:05:14.233Z,1.75
2023-04-04T10:07:42.296Z,1.55
2023-04-04T10:10:11.698Z,1.98
2023-04-04T10:12:38.733Z,1.98
2023-04-04T10:15:05.548Z,2.03
2023-04-04T10:17:38.314Z,1.75
2023-04-04T10:20:06.681Z,1.90
2023-04-04T10:22:33.881Z,1.67
2023-04-04T10:25:00.556Z,1.95
2023-04-04T10:27:27.346Z,1.58
2023-04-04T10:29:53.892Z,1.58
2023-04-04T10:32:26.650Z,1.70
2023-04-04T10:35:02.734Z,1.75
2023-04-04T10:37:34.840Z,1.52
2023-04-04T10:40:06.742Z,2.03
2023-04-04T10:42:39.968Z,1.70
2023-04-04T10:45:20.359Z,1.88
2023-04-04T10:47:48.339Z,1.40
2023-04-04T10:50:15.214Z,1.48
2023-04-04T10:52:44.495Z,1.63
2023-04-04T10:55:12.961Z,1.67
2023-04-04T10:57:44.710Z,1.90
2023-04-04T11:00:13.074Z,1.70
2023-04-04T11:02:54.389Z,1.73
2023-04-04T11:05:47.146Z,1.48
2023-04-04T11:08:24.937Z,1.08
2023-04-04T11:10:53.462Z,1.90
2023-04-04T11:13:35.681Z,1.52
2023-04-04T11:16:15.086Z,1.75
2023-04-04T11:18:41.576Z,1.55
2023-04-04T11:21:10.082Z,1.85
2023-04-04T11:23:48.658Z,1.55
2023-04-04T11:26:30.618Z,1.27
2023-04-04T11:29:02.096Z,1.73
2023-04-04T11:31:32.562Z,1.80
2023-04-04T11:34:12.240Z,1.30
2023-04-04T11:36:42.993Z,1.42
2023-04-04T11:39:30.271Z,1.77
2023-04-04T11:42:06.803Z,1.80
2023-04-04T11:44:39.704Z,1.48
2023-04-04T11:47:06.034Z,1.08
2023-04-04T11:49:37.776Z,1.52
2023-04-04T11:52:09.920Z,1.70
2023-04-04T11:54:37.694Z,1.27
2023-04-04T11:57:06.740Z,1.55
2023-04-04T11:59:33.254Z,1.40
2023-04-04T12:02:00.393Z,1.58
2023-04-04T12:04:27.558Z,1.88
2023-04-04T12:06:56.517Z,2.03
2023-04-04T12:09:25.732Z,1.60
2023-04-04T12:11:52.650Z,1.23
2023-04-04T12:14:20.844Z,1.40
2023-04-04T12:16:52.402Z,1.60
2023-04-04T12:19:18.874Z,1.35
2023-04-04T12:21:49.048Z,1.38
2023-04-04T12:24:15.806Z,1.73
2023-04-04T12:26:44.633Z,1.63
2023-04-04T12:29:13.734Z,1.92
2023-04-04T12:31:42.968Z,1.65
2023-04-04T12:34:33.473Z,1.60
2023-04-04T12:37:01.740Z,1.40
2023-04-04T12:39:29.789Z,1.63
2023-04-04T12:42:03.658Z,1.73
2023-04-04T12:44:34.404Z,1.42
2023-04-04T12:47:04.623Z,1.40
2023-04-04T12:49:35.440Z,1.95
2023-04-04T12:52:05.206Z,1.67
2023-04-04T12:54:32.797Z,1.40
2023-04-04T12:57:04.171Z,2.15
2023-04-04T12:59:32.760Z,1.70
2023-04-04T13:02:02.602Z,1.58
2023-04-04T13:04:29.193Z,1.20
2023-04-04T13:06:55.667Z,1.42
2023-04-04T13:09:23.356Z,1.10
2023-04-04T13:11:57.142Z,1.05
2023-04-04T13:14:23.539Z,1.40
2023-04-04T13:17:05.447Z,1.45
2023-04-04T13:19:32.203Z,1.42
2023-04-04T13:22:00.227Z,1.15
2023-04-04T13:24:26.611Z,1.30
2023-04-04T13:26:53.056Z,1.50
2023-04-04T13:29:19.612Z,1.50
2023-04-04T13:31:46.017Z,1.50
2023-04-04T13:34:12.431Z,1.30
2023-04-04T13:36:38.848Z,1.17
2023-04-04T13:39:05.323Z,1.15
2023-04-04T13:41:31.741Z,1.60
2023-04-04T13:43:58.137Z,1.60
2023-04-04T13:46:24.572Z,1.23
2023-04-04T13:48:51.007Z,1.77
2023-04-04T13:51:17.467Z,1.40
2023-04-04T13:53:47.102Z,1.70
2023-04-04T13:56:18.341Z,1.40
2023-04-04T13:58:45.725Z,1.83
2023-04-04T14:01:12.369Z,1.55
2023-04-04T14:03:38.826Z,1.00
2023-04-04T14:06:10.409Z,1.70
2023-04-04T14:08:37.416Z,1.42
2023-04-04T14:11:04.108Z,1.23
2023-04-04T14:13:32.541Z,1.25
2023-04-04T14:15:58.980Z,1.85
2023-04-04T14:18:25.636Z,1.58
2023-04-04T14:20:52.065Z,1.60
2023-04-04T14:23:18.463Z,1.40
2023-04-04T14:25:45.113Z,1.25
2023-04-04T14:28:11.864Z,1.73
2023-04-04T14:30:38.311Z,1.20
2023-04-04T14:33:04.761Z,1.55
2023-04-04T14:35:31.204Z,1.65
2023-04-04T14:37:57.606Z,1.00
2023-04-04T14:40:23.990Z,1.50
2023-04-04T14:42:50.564Z,1.75
2023-04-04T14:45:17.588Z,1.35
2023-04-04T14:47:44.053Z,1.50
2023-04-04T14:50:10.558Z,1.60
2023-04-04T14:52:37.027Z,1.25
2023-04-04T14:55:03.750Z,1.50
2023-04-04T14:57:32.131Z,1.48
2023-04-04T15:00:02.238Z,1.50
2023-04-04T15:02:28.862Z,1.33
2023-04-04T15:04:55.321Z,1.65
2023-04-04T15:07:24.181Z,1.33
2023-04-04T15:09:50.633Z,1.52
2023-04-04T15:12:17.088Z,1.52
2023-04-04T15:14:43.468Z,1.10
2023-04-04T15:17:09.888Z,1.00
2023-04-04T15:19:36.984Z,1.33
2023-04-04T15:22:04.662Z,1.38
2023-04-04T15:24:31.065Z,1.15
2023-04-04T15:26:57.848Z,1.30
2023-04-04T15:29:24.381Z,1.27
2023-04-04T15:31:50.903Z,1.25
2023-04-04T15:34:17.349Z,1.35
2023-04-04T15:36:44.213Z,1.70
2023-04-04T15:39:11.884Z,1.60
2023-04-04T15:41:38.303Z,1.30
2023-04-04T15:44:05.336Z,1.40
2023-04-04T15:46:31.853Z,1.60
2023-04-04T15:48:58.316Z,1.60
2023-04-04T15:51:25.731Z,1.45
2023-04-04T15:53:55.770Z,1.35
2023-04-04T15:56:22.487Z,2.00
2023-04-04T15:58:49.005Z,1.63
2023-04-04T16:01:15.472Z,2.03
2023-04-04T16:03:43.015Z,1.80
2023-04-04T16:06:12.898Z,1.52
2023-04-04T16:08:42.032Z,1.40
2023-04-04T16:11:08.519Z,1.45
2023-04-04T16:13:34.936Z,1.58
2023-04-04T16:16:01.392Z,1.65
2023-04-04T16:18:28.008Z,2.00
2023-04-04T16:20:54.401Z,1.65
2023-04-04T16:23:21.539Z,2.25
2023-04-04T16:25:47.956Z,1.83
2023-04-04T16:28:14.349Z,1.42
2023-04-04T16:30:40.853Z,1.40
2023-04-04T16:33:07.420Z,2.50
2023-04-04T16:35:34.560Z,2.25
2023-04-04T16:38:00.975Z,1.80
2023-04-04T16:40:27.401Z,1.58
2023-04-04T16:42:53.803Z,2.30
2023-04-04T16:45:21.584Z,1.70
2023-04-04T16:47:48.067Z,1.33
2023-04-04T16:50:14.514Z,1.60
2023-04-04T16:52:40.947Z,1.58
2023-04-04T16:55:08.690Z,1.60
2023-04-04T16:57:35.266Z,1.80
2023-04-04T17:00:01.664Z,1.65
2023-04-04T17:02:28.076Z,1.83
2023-04-04T17:04:54.479Z,1.70
2023-04-04T17:07:21.100Z,1.95
2023-04-04T17:09:48.795Z,2.03
2023-04-04T17:12:15.465Z,1.98
2023-04-04T17:14:41.911Z,2.20
2023-04-04T17:17:08.768Z,1.88
2023-04-04T17:19:35.712Z,1.48
2023-04-04T17:22:02.272Z,1.85
2023-04-04T17:24:28.665Z,1.67
2023-04-04T17:26:57.734Z,1.88
2023-04-04T17:29:26.838Z,2.30
2023-04-04T17:31:55.157Z,1.70
2023-04-04T17:34:21.910Z,1.50
2023-04-04T17:36:48.713Z,2.25
2023-04-04T17:39:15.257Z,2.50
2023-04-04T17:41:41.913Z,1.90
2023-04-04T17:44:09.127Z,1.80
2023-04-04T17:46:36.193Z,1.65
2023-04-04T17:49:02.680Z,1.90
2023-04-04T17:51:29.261Z,1.95
2023-04-04T17:53:55.657Z,2.75
2023-04-04T17:56:22.064Z,2.63
2023-04-04T17:58:48.454Z,2.45
2023-04-04T18:01:14.946Z,2.38
2023-04-04T18:03:41.423Z,2.58
2023-04-04T18:06:08.602Z,2.53
2023-04-04T18:08:34.993Z,1.98
2023-04-04T18:11:01.421Z,2.53
2023-04-04T18:13:27.837Z,2.20
2023-04-04T18:15:54.300Z,2.05
2023-04-04T18:18:21.308Z,2.15
2023-04-04T18:20:50.737Z,2.97
2023-04-04T18:23:17.491Z,2.45
2023-04-04T18:25:43.892Z,2.45
2023-04-04T18:28:10.315Z,2.10
2023-04-04T18:30:37.612Z,2.15
2023-04-04T18:33:04.544Z,2.55
2023-04-04T18:35:30.974Z,2.60
2023-04-04T18:37:57.362Z,2.92
2023-04-04T18:40:23.794Z,2.40
2023-04-04T18:42:52.037Z,1.83
2023-04-04T18:45:20.934Z,4.03
2023-04-04T18:47:47.531Z,2.70
2023-04-04T18:50:14.476Z,2.13
2023-04-04T18:52:42.354Z,2.15
2023-04-04T18:55:09.267Z,2.40
2023-04-04T18:57:37.191Z,2.10
2023-04-04T19:00:06.501Z,2.30
2023-04-04T19:02:34.158Z,2.10
2023-04-04T19:05:03.581Z,2.72
2023-04-04T19:07:31.413Z,3.17
2023-04-04T19:09:58.147Z,2.67
2023-04-04T19:12:24.543Z,2.78
2023-04-04T19:14:50.953Z,2.60
2023-04-04T19:17:18.129Z,3.15
2023-04-04T19:19:44.528Z,2.90
2023-04-04T19:22:10.921Z,2.58
2023-04-04T19:24:40.158Z,2.88
2023-04-04T19:27:06.922Z,2.63
2023-04-04T19:29:36.209Z,2.58
2023-04-04T19:32:09.882Z,2.47
2023-04-04T19:34:36.466Z,2.10
2023-04-04T19:37:02.950Z,1.67
2023-04-04T19:39:31.539Z,2.00
2023-04-04T19:41:58.062Z,2.13
2023-04-04T19:44:24.454Z,2.58
2023-04-04T19:46:50.904Z,4.18
2023-04-04T19:49:17.828Z,3.63
2023-04-04T19:51:53.622Z,2.97
2023-04-04T19:54:25.380Z,2.60
2023-04-04T19:56:57.265Z,2.83
2023-04-04T19:59:54.552Z,2.88
2023-04-04T20:02:26.847Z,2.20
2023-04-04T20:04:54.072Z,2.85
2023-04-04T20:07:20.532Z,2.33
2023-04-04T20:09:47.491Z,2.17
2023-04-04T20:12:16.012Z,2.08
2023-04-04T20:14:42.440Z,1.80
2023-04-04T20:17:09.641Z,2.22
2023-04-04T20:19:36.561Z,1.92
2023-04-04T20:22:04.997Z,2.60
2023-04-04T20:24:31.560Z,2.22
2023-04-04T20:26:59.470Z,2.67
2023-04-04T20:29:27.889Z,2.80
2023-04-04T20:32:00.510Z,3.53
2023-04-04T20:34:42.543Z,3.78
2023-04-04T20:37:19.729Z,4.82
2023-04-04T20:39:48.854Z,4.60
2023-04-04T20:42:32.165Z,6.20
2023-04-04T20:44:58.493Z,5.43
2023-04-04T20:47:40.269Z,4.90
2023-04-04T20:50:27.165Z,3.60
2023-04-04T20:52:58.529Z,2.85
2023-04-04T20:57:56.601Z,3.25
2023-04-04T21:00:22.940Z,3.17
2023-04-04T21:02:49.449Z,3.22
2023-04-04T21:05:27.339Z,3.33
2023-04-04T21:07:53.892Z,2.60
2023-04-04T21:10:44.838Z,2.45
2023-04-04T21:13:11.297Z,2.10
2023-04-04T21:15:39.156Z,1.95
2023-04-04T21:18:09.993Z,2.25
2023-04-04T21:20:45.866Z,2.38
2023-04-04T21:23:26.807Z,2.53
2023-04-04T21:25:59.933Z,2.90
2023-04-04T21:28:37.901Z,2.63
2023-04-04T21:31:16.206Z,3.17
2023-04-04T21:33:43.694Z,5.68
2023-04-04T21:36:18.093Z,4.35
2023-04-04T21:38:44.522Z,3.03
2023-04-04T21:41:21.564Z,2.53
2023-04-04T21:43:47.949Z,2.35
2023-04-04T21:46:14.398Z,2.20
2023-04-04T21:48:40.849Z,2.90
2023-04-04T21:51:07.237Z,2.50
2023-04-04T21:53:33.709Z,2.20
2023-04-04T21:56:00.269Z,2.53
2023-04-04T21:58:26.702Z,3.63
2023-04-04T22:00:53.135Z,2.25
2023-04-04T22:03:19.555Z,2.88
2023-04-04T22:05:46.048Z,2.45
2023-04-04T22:08:12.466Z,3.05
2023-04-04T22:10:46.211Z,2.90
2023-04-04T22:13:17.062Z,2.60
2023-04-04T22:15:46.960Z,3.20
2023-04-04T22:18:17.294Z,2.80
2023-04-04T22:20:47.848Z,2.43
2023-04-04T22:23:17.618Z,1.98
2023-04-04T22:25:44.025Z,2.65
2023-04-04T22:28:10.429Z,3.03
2023-04-04T22:30:39.039Z,2.60
2023-04-04T22:33:05.899Z,2.90
2023-04-04T22:35:32.995Z,3.28
2023-04-04T22:38:00.947Z,3.00
2023-04-04T22:40:28.554Z,2.33
2023-04-04T22:42:55.511Z,3.17
2023-04-04T22:45:22.936Z,3.05
2023-04-04T22:47:49.894Z,2.97
2023-04-04T22:50:22.737Z,3.30
2023-04-04T22:52:49.321Z,3.15
2023-04-04T22:55:18.030Z,2.95
2023-04-04T22:57:44.432Z,2.88
2023-04-04T23:00:12.161Z,3.33
2023-04-04T23:02:39.840Z,3.92
2023-04-04T23:05:08.120Z,3.13
2023-04-04T23:07:36.048Z,3.17
2023-04-04T23:10:03.638Z,3.10
2023-04-04T23:12:30.097Z,3.85
2023-04-04T23:14:58.705Z,3.72
2023-04-04T23:17:25.587Z,3.72
2023-04-04T23:19:51.979Z,4.07
2023-04-04T23:22:18.398Z,4.13
2023-04-04T23:24:44.832Z,4.60
2023-04-04T23:27:12.399Z,5.03
2023-04-04T23:29:38.791Z,4.80
2023-04-04T23:32:05.450Z,4.55
2023-04-04T23:34:31.863Z,3.90
2023-04-04T23:36:58.267Z,5.32
2023-04-04T23:39:24.653Z,4.32
2023-04-04T23:41:51.147Z,4.15
2023-04-04T23:44:17.693Z,4.22
2023-04-04T23:46:44.559Z,4.50
2023-04-04T23:49:11.995Z,3.72
2023-04-04T23:51:39.503Z,4.40
2023-04-04T23:54:07.865Z,4.38
2023-04-04T23:56:35.097Z,4.10
2023-04-04T23:59:01.924Z,4.05
